KTBN/TBN METAR and TAF weather

Enter ICAO airport designator
Station Type Date Time Source
KTBN METAR 2021/07/24 19:56 UTC NOAA

KTBN 241956Z AUTO 23005KT 10SM FEW042 33/23 A3002 RMK AO2 SLP155 T03250231 VISNO RWY33 $


Station Type Date Time Source
KTBN Decoded METAR 2021/07/24 19:56 UTC NOAA

Fort Leonard Wood, MO, United States (KTBN) 37-44N 092-08W
Jul 24, 2021 - 03:56 PM EDT / 2021.07.24 1956 UTC
Wind: from the SW (230 degrees) at 6 MPH (5 KT):0
Visibility: 10 mile(s):0
Sky conditions: mostly clear
Temperature: 90.5 F (32.5 C)
Heat index: 99.1 F (37.3 C):1
Dew Point: 73.6 F (23.1 C)
Relative Humidity: 57%
Pressure (altimeter): 30.02 in. Hg (1016 hPa)
ob: KTBN 241956Z AUTO 23005KT 10SM FEW042 33/23 A3002 RMK AO2 SLP155 T03250231 VISNO RWY33
cycle: 20

Station Type Date Time Source
KTBN TAF UTC NOAA

Error!

Example: see airport list